76II weather

Ries Airport
Laotto, Indiana, United States

Public forecast

Using degrees Fahrenheit for public forecast. Weather courtesy of forecast.io.

METAR (pilot weather report)

Closest report is De Kalb County Airport, 9.5 nm (17.6 km) ENE. Retrieved 2019/04/22 05:35 UTC (4 minutes ago):

KGWB 220535Z AUTO 00000KT 10SM CLR 10/07 A3017 RMK AO2

TAF (pilot weather forecast)

Forecast is more than 12 hours old.

Closest forecast is Fort Wayne International Airport, 18.2 nm (33.7 km) S. Retrieved 2019/04/21 00:22 UTC (1 day ago):

TAF KFWA 212320Z 2200/2224 14005KT P6SM FEW250 TEMPO 2210/2213 5SM BR FM221500 18013KT P6SM BKN150